THY1255 LTFM-LTFE
Flight info
| Callsign | THY1255 |
|---|---|
| Flight time | 0h 51m |
| Altitude | 36000 |
| Route | RATVU1E/36 RATVU UT35 NUMTI DCT KULAR/N0448F350 UT44 LAVTA UW87 KAVAK |
| Aircraft | A321/M-SDE3FGHIRWY/LB1 |
Departure
| Time | 2026-05-05 17:41 |
|---|---|
| Airport | İstanbul Airport (LTFM) |
Arrival
| Time | 2026-05-05 18:32 |
|---|---|
| Airport | Milas Bodrum International Airport (LTFE) |
| Time | Latitude | Longitude | Altitude | Speed | Heading |
|---|---|---|---|---|---|
| 2026-05-05 17:08 | 41.25977 | 28.74955 | 334 ft | 0 kts | 254° |
| 2026-05-05 17:31 | 41.25978 | 28.74960 | 334 ft | 2 kts | 254° |
| 2026-05-05 17:31 | 41.25982 | 28.74978 | 329 ft | 3 kts | 253° |
| 2026-05-05 17:31 | 41.25988 | 28.75002 | 331 ft | 3 kts | 252° |
| 2026-05-05 17:32 | 41.25993 | 28.75024 | 332 ft | 3 kts | 254° |
| 2026-05-05 17:32 | 41.25999 | 28.75059 | 329 ft | 3 kts | 270° |
| 2026-05-05 17:32 | 41.25996 | 28.75082 | 330 ft | 3 kts | 314° |
| 2026-05-05 17:32 | 41.25992 | 28.75088 | 329 ft | 0 kts | 336° |
| 2026-05-05 17:36 | 41.25996 | 28.75086 | 330 ft | 3 kts | 336° |
| 2026-05-05 17:36 | 41.26034 | 28.75068 | 330 ft | 3 kts | 341° |
| 2026-05-05 17:37 | 41.26043 | 28.75063 | 331 ft | 5 kts | 341° |
| 2026-05-05 17:37 | 41.26133 | 28.75022 | 331 ft | 14 kts | 341° |
| 2026-05-05 17:37 | 41.26227 | 28.75012 | 334 ft | 11 kts | 36° |
| 2026-05-05 17:37 | 41.26242 | 28.75104 | 334 ft | 11 kts | 92° |
| 2026-05-05 17:38 | 41.26242 | 28.75191 | 334 ft | 6 kts | 85° |
| 2026-05-05 17:38 | 41.26246 | 28.75269 | 334 ft | 11 kts | 87° |
| 2026-05-05 17:38 | 41.26247 | 28.75348 | 334 ft | 12 kts | 89° |
| 2026-05-05 17:38 | 41.26248 | 28.75497 | 334 ft | 12 kts | 89° |
| 2026-05-05 17:39 | 41.26251 | 28.75620 | 334 ft | 11 kts | 80° |
| 2026-05-05 17:39 | 41.26308 | 28.75669 | 332 ft | 0 kts | 358° |
| 2026-05-05 17:39 | 41.26311 | 28.75668 | 330 ft | 1 kts | 358° |
| 2026-05-05 17:39 | 41.26318 | 28.75668 | 330 ft | 0 kts | 358° |
| 2026-05-05 17:40 | 41.26322 | 28.75668 | 331 ft | 1 kts | 358° |
| 2026-05-05 17:40 | 41.26326 | 28.75668 | 333 ft | 1 kts | 358° |
| 2026-05-05 17:40 | 41.26330 | 28.75667 | 333 ft | 1 kts | 358° |
| 2026-05-05 17:40 | 41.26341 | 28.75667 | 331 ft | 10 kts | 358° |
| 2026-05-05 17:41 | 41.26686 | 28.75661 | 330 ft | 85 kts | 359° |
| 2026-05-05 17:41 | 41.27494 | 28.75647 | 335 ft | 145 kts | 359° |
| 2026-05-05 17:41 | 41.28659 | 28.75644 | 627 ft | 169 kts | 360° |
| 2026-05-05 17:41 | 41.29824 | 28.75720 | 1386 ft | 169 kts | 17° |
| 2026-05-05 17:42 | 41.30870 | 28.76581 | 1732 ft | 189 kts | 35° |
| 2026-05-05 17:42 | 41.32050 | 28.77624 | 1946 ft | 210 kts | 31° |
| 2026-05-05 17:42 | 41.33501 | 28.78776 | 2210 ft | 235 kts | 30° |
| 2026-05-05 17:42 | 41.34992 | 28.79943 | 2948 ft | 240 kts | 28° |
| 2026-05-05 17:43 | 41.36393 | 28.81028 | 3761 ft | 240 kts | 28° |
| 2026-05-05 17:43 | 41.37722 | 28.82448 | 4577 ft | 245 kts | 51° |
| 2026-05-05 17:43 | 41.38374 | 28.84569 | 5193 ft | 263 kts | 81° |
| 2026-05-05 17:43 | 41.38419 | 28.87071 | 5886 ft | 270 kts | 86° |
| 2026-05-05 17:44 | 41.38411 | 28.89584 | 6630 ft | 274 kts | 90° |
| 2026-05-05 17:44 | 41.37862 | 28.92078 | 7289 ft | 287 kts | 118° |
| 2026-05-05 17:44 | 41.36438 | 28.93997 | 7961 ft | 298 kts | 149° |
| 2026-05-05 17:44 | 41.34229 | 28.94788 | 8690 ft | 305 kts | 178° |
| 2026-05-05 17:45 | 41.32230 | 28.94831 | 9343 ft | 308 kts | 180° |
| 2026-05-05 17:45 | 41.30041 | 28.94847 | 10043 ft | 313 kts | 180° |
| 2026-05-05 17:45 | 41.28577 | 28.94857 | 10278 ft | 324 kts | 180° |
| 2026-05-05 17:45 | 41.25381 | 28.94880 | 10460 ft | 355 kts | 180° |
| 2026-05-05 17:46 | 41.23411 | 28.94816 | 10654 ft | 368 kts | 182° |
| 2026-05-05 17:46 | 41.20930 | 28.94622 | 11166 ft | 374 kts | 184° |
| 2026-05-05 17:46 | 41.18355 | 28.94353 | 11775 ft | 378 kts | 185° |
| 2026-05-05 17:46 | 41.15712 | 28.94053 | 12417 ft | 381 kts | 185° |
| 2026-05-05 17:47 | 41.12912 | 28.93744 | 13093 ft | 385 kts | 185° |
| 2026-05-05 17:47 | 41.10764 | 28.93521 | 13612 ft | 388 kts | 185° |
| 2026-05-05 17:47 | 41.07235 | 28.93179 | 14390 ft | 392 kts | 184° |
| 2026-05-05 17:47 | 41.04498 | 28.92926 | 15005 ft | 394 kts | 184° |
| 2026-05-05 17:48 | 41.01616 | 28.92661 | 15648 ft | 396 kts | 184° |
| 2026-05-05 17:48 | 40.98901 | 28.92405 | 16251 ft | 398 kts | 181° |
| 2026-05-05 17:48 | 40.96126 | 28.92844 | 16837 ft | 400 kts | 163° |
| 2026-05-05 17:48 | 40.93462 | 28.93952 | 17457 ft | 401 kts | 161° |
| 2026-05-05 17:49 | 40.90692 | 28.95148 | 18101 ft | 403 kts | 161° |
| 2026-05-05 17:49 | 40.88022 | 28.96314 | 18654 ft | 405 kts | 161° |
| 2026-05-05 17:49 | 40.86318 | 28.97060 | 18970 ft | 407 kts | 161° |
| 2026-05-05 17:49 | 40.83629 | 28.98235 | 19485 ft | 409 kts | 161° |
| 2026-05-05 17:50 | 40.80627 | 28.99539 | 20056 ft | 412 kts | 161° |
| 2026-05-05 17:50 | 40.77807 | 29.00754 | 20583 ft | 415 kts | 161° |
| 2026-05-05 17:50 | 40.75058 | 29.01938 | 21078 ft | 417 kts | 161° |
| 2026-05-05 17:50 | 40.72285 | 29.03134 | 21564 ft | 420 kts | 161° |
| 2026-05-05 17:51 | 40.69478 | 29.04232 | 22022 ft | 423 kts | 169° |
| 2026-05-05 17:51 | 40.66453 | 29.04444 | 22461 ft | 427 kts | 186° |
| 2026-05-05 17:51 | 40.63456 | 29.03895 | 22898 ft | 430 kts | 188° |
| 2026-05-05 17:51 | 40.60459 | 29.03292 | 23344 ft | 433 kts | 189° |
| 2026-05-05 17:52 | 40.57349 | 29.02651 | 23774 ft | 436 kts | 189° |
| 2026-05-05 17:52 | 40.54312 | 29.02022 | 24129 ft | 438 kts | 189° |
| 2026-05-05 17:52 | 40.51197 | 29.01376 | 24522 ft | 440 kts | 189° |
| 2026-05-05 17:52 | 40.49205 | 29.00965 | 24771 ft | 441 kts | 188° |
| 2026-05-05 17:53 | 40.46044 | 29.00320 | 25162 ft | 443 kts | 188° |
| 2026-05-05 17:53 | 40.42968 | 28.99698 | 25531 ft | 445 kts | 188° |
| 2026-05-05 17:53 | 40.39911 | 28.99082 | 25896 ft | 447 kts | 188° |
| 2026-05-05 17:53 | 40.36750 | 28.98446 | 26276 ft | 448 kts | 188° |
| 2026-05-05 17:54 | 40.33510 | 28.97789 | 26652 ft | 450 kts | 188° |
| 2026-05-05 17:54 | 40.30473 | 28.97175 | 26995 ft | 452 kts | 188° |
| 2026-05-05 17:54 | 40.27358 | 28.96546 | 27342 ft | 454 kts | 188° |
| 2026-05-05 17:54 | 40.24187 | 28.95906 | 27686 ft | 456 kts | 188° |
| 2026-05-05 17:55 | 40.21038 | 28.95273 | 28018 ft | 458 kts | 188° |
| 2026-05-05 17:55 | 40.17845 | 28.94628 | 28343 ft | 460 kts | 188° |
| 2026-05-05 17:55 | 40.14584 | 28.93973 | 28673 ft | 462 kts | 189° |
| 2026-05-05 17:55 | 40.11370 | 28.93329 | 28984 ft | 465 kts | 189° |
| 2026-05-05 17:56 | 40.08109 | 28.92675 | 29307 ft | 467 kts | 189° |
| 2026-05-05 17:56 | 40.04865 | 28.92024 | 29628 ft | 469 kts | 189° |
| 2026-05-05 17:56 | 40.01647 | 28.91378 | 29936 ft | 471 kts | 189° |
| 2026-05-05 17:56 | 39.98393 | 28.90726 | 30316 ft | 471 kts | 189° |
| 2026-05-05 17:57 | 39.95110 | 28.90071 | 30663 ft | 471 kts | 189° |
| 2026-05-05 17:57 | 39.91867 | 28.89426 | 30980 ft | 471 kts | 189° |
| 2026-05-05 17:57 | 39.88627 | 28.88784 | 31281 ft | 472 kts | 190° |
| 2026-05-05 17:57 | 39.85373 | 28.88138 | 31595 ft | 473 kts | 190° |
| 2026-05-05 17:58 | 39.82080 | 28.87484 | 31887 ft | 473 kts | 190° |
| 2026-05-05 17:58 | 39.78561 | 28.86784 | 32203 ft | 474 kts | 191° |
| 2026-05-05 17:58 | 39.75246 | 28.86125 | 32512 ft | 475 kts | 191° |
| 2026-05-05 17:58 | 39.72956 | 28.85671 | 32729 ft | 475 kts | 191° |
| 2026-05-05 17:59 | 39.69689 | 28.85024 | 33020 ft | 475 kts | 191° |
| 2026-05-05 17:59 | 39.66378 | 28.84367 | 33322 ft | 476 kts | 191° |
| 2026-05-05 17:59 | 39.63057 | 28.83710 | 33631 ft | 476 kts | 191° |
| 2026-05-05 17:59 | 39.59697 | 28.83043 | 33940 ft | 476 kts | 191° |
| 2026-05-05 18:00 | 39.56385 | 28.82386 | 34227 ft | 476 kts | 191° |
| 2026-05-05 18:00 | 39.53078 | 28.81734 | 34492 ft | 475 kts | 191° |
| 2026-05-05 18:00 | 39.49150 | 28.80961 | 34787 ft | 476 kts | 191° |
| 2026-05-05 18:00 | 39.46794 | 28.80497 | 34962 ft | 476 kts | 191° |
| 2026-05-05 18:01 | 39.43465 | 28.79837 | 35221 ft | 475 kts | 191° |
| 2026-05-05 18:01 | 39.40168 | 28.79184 | 35470 ft | 475 kts | 191° |
| 2026-05-05 18:01 | 39.36895 | 28.78540 | 35716 ft | 475 kts | 191° |
| 2026-05-05 18:01 | 39.33446 | 28.77871 | 35976 ft | 475 kts | 191° |
| 2026-05-05 18:02 | 39.30134 | 28.77230 | 36075 ft | 475 kts | 191° |
| 2026-05-05 18:02 | 39.23512 | 28.75940 | 36097 ft | 475 kts | 191° |
| 2026-05-05 18:03 | 39.16987 | 28.74647 | 36102 ft | 474 kts | 191° |
| 2026-05-05 18:03 | 39.10338 | 28.73336 | 36093 ft | 474 kts | 191° |
| 2026-05-05 18:04 | 39.04835 | 28.72268 | 36095 ft | 474 kts | 191° |
| 2026-05-05 18:04 | 38.97920 | 28.70943 | 36085 ft | 474 kts | 191° |
| 2026-05-05 18:05 | 38.91095 | 28.69627 | 36087 ft | 474 kts | 191° |
| 2026-05-05 18:05 | 38.84440 | 28.68339 | 36084 ft | 474 kts | 192° |
| 2026-05-05 18:06 | 38.77784 | 28.67048 | 35774 ft | 474 kts | 191° |
| 2026-05-05 18:06 | 38.72315 | 28.65988 | 35357 ft | 474 kts | 192° |
| 2026-05-05 18:06 | 38.68791 | 28.65305 | 35091 ft | 475 kts | 192° |
| 2026-05-05 18:07 | 38.65074 | 28.64590 | 34818 ft | 475 kts | 192° |
| 2026-05-05 18:07 | 38.61760 | 28.63956 | 34569 ft | 476 kts | 192° |
| 2026-05-05 18:07 | 38.58330 | 28.63427 | 34129 ft | 480 kts | 186° |
| 2026-05-05 18:07 | 38.54960 | 28.63500 | 33209 ft | 488 kts | 178° |
| 2026-05-05 18:08 | 38.51518 | 28.63812 | 32473 ft | 489 kts | 178° |
| 2026-05-05 18:08 | 38.48136 | 28.64115 | 32015 ft | 485 kts | 179° |
| 2026-05-05 18:08 | 38.44779 | 28.64406 | 31465 ft | 483 kts | 179° |
| 2026-05-05 18:08 | 38.41347 | 28.64695 | 30912 ft | 480 kts | 179° |
| 2026-05-05 18:09 | 38.38021 | 28.64966 | 30372 ft | 478 kts | 179° |
| 2026-05-05 18:09 | 38.35783 | 28.65147 | 29978 ft | 476 kts | 179° |
| 2026-05-05 18:09 | 38.32487 | 28.65412 | 29417 ft | 472 kts | 179° |
| 2026-05-05 18:09 | 38.29137 | 28.65685 | 28865 ft | 467 kts | 179° |
| 2026-05-05 18:10 | 38.25912 | 28.65949 | 28343 ft | 463 kts | 179° |
| 2026-05-05 18:10 | 38.22624 | 28.66217 | 27805 ft | 459 kts | 179° |
| 2026-05-05 18:10 | 38.19492 | 28.66474 | 27299 ft | 455 kts | 179° |
| 2026-05-05 18:10 | 38.16309 | 28.66736 | 26782 ft | 451 kts | 179° |
| 2026-05-05 18:11 | 38.13190 | 28.66993 | 26288 ft | 447 kts | 178° |
| 2026-05-05 18:11 | 38.09936 | 28.67261 | 25772 ft | 443 kts | 178° |
| 2026-05-05 18:11 | 38.06871 | 28.67511 | 25302 ft | 439 kts | 178° |
| 2026-05-05 18:11 | 38.03832 | 28.67760 | 24829 ft | 435 kts | 178° |
| 2026-05-05 18:12 | 38.00782 | 28.68007 | 24374 ft | 432 kts | 178° |
| 2026-05-05 18:12 | 37.97755 | 28.68252 | 23920 ft | 429 kts | 178° |
| 2026-05-05 18:12 | 37.94740 | 28.68498 | 23437 ft | 427 kts | 178° |
| 2026-05-05 18:12 | 37.91751 | 28.68742 | 22984 ft | 423 kts | 178° |
| 2026-05-05 18:13 | 37.88792 | 28.68983 | 22544 ft | 419 kts | 178° |
| 2026-05-05 18:13 | 37.85808 | 28.69224 | 22091 ft | 416 kts | 178° |
| 2026-05-05 18:13 | 37.82929 | 28.69458 | 21643 ft | 414 kts | 178° |
| 2026-05-05 18:13 | 37.80065 | 28.69692 | 21190 ft | 411 kts | 178° |
| 2026-05-05 18:14 | 37.77218 | 28.69924 | 20744 ft | 408 kts | 178° |
| 2026-05-05 18:14 | 37.74389 | 28.70156 | 20264 ft | 406 kts | 178° |
| 2026-05-05 18:14 | 37.71504 | 28.70391 | 19815 ft | 403 kts | 178° |
| 2026-05-05 18:14 | 37.68636 | 28.70644 | 19324 ft | 401 kts | 178° |
| 2026-05-05 18:15 | 37.66721 | 28.70788 | 19013 ft | 400 kts | 179° |
| 2026-05-05 18:15 | 37.63910 | 28.70975 | 18535 ft | 398 kts | 179° |
| 2026-05-05 18:15 | 37.61148 | 28.71145 | 18029 ft | 396 kts | 179° |
| 2026-05-05 18:15 | 37.58331 | 28.71319 | 17541 ft | 393 kts | 179° |
| 2026-05-05 18:16 | 37.55576 | 28.71497 | 17070 ft | 389 kts | 179° |
| 2026-05-05 18:16 | 37.52882 | 28.71681 | 16612 ft | 386 kts | 178° |
| 2026-05-05 18:16 | 37.50218 | 28.71870 | 16150 ft | 383 kts | 178° |
| 2026-05-05 18:16 | 37.47565 | 28.72079 | 15718 ft | 379 kts | 178° |
| 2026-05-05 18:17 | 37.44942 | 28.72329 | 15580 ft | 367 kts | 177° |
| 2026-05-05 18:17 | 37.42440 | 28.72591 | 15463 ft | 355 kts | 177° |
| 2026-05-05 18:17 | 37.40019 | 28.72829 | 15321 ft | 342 kts | 181° |
| 2026-05-05 18:17 | 37.37642 | 28.72400 | 15192 ft | 324 kts | 203° |
| 2026-05-05 18:18 | 37.35724 | 28.71095 | 15065 ft | 306 kts | 224° |
| 2026-05-05 18:18 | 37.34317 | 28.69188 | 14814 ft | 293 kts | 242° |
| 2026-05-05 18:18 | 37.33421 | 28.66937 | 14459 ft | 288 kts | 251° |
| 2026-05-05 18:18 | 37.32607 | 28.64636 | 14116 ft | 287 kts | 250° |
| 2026-05-05 18:19 | 37.31778 | 28.62323 | 13794 ft | 286 kts | 250° |
| 2026-05-05 18:19 | 37.30958 | 28.60054 | 13445 ft | 285 kts | 250° |
| 2026-05-05 18:19 | 37.30141 | 28.57794 | 13105 ft | 284 kts | 249° |
| 2026-05-05 18:19 | 37.29326 | 28.55543 | 12769 ft | 283 kts | 250° |
| 2026-05-05 18:20 | 37.28512 | 28.53298 | 12432 ft | 282 kts | 250° |
| 2026-05-05 18:20 | 37.27693 | 28.51032 | 12064 ft | 281 kts | 250° |
| 2026-05-05 18:20 | 37.26886 | 28.48802 | 11741 ft | 280 kts | 249° |
| 2026-05-05 18:20 | 37.26047 | 28.46488 | 11382 ft | 279 kts | 249° |
| 2026-05-05 18:21 | 37.25210 | 28.44184 | 11032 ft | 278 kts | 249° |
| 2026-05-05 18:21 | 37.24411 | 28.41981 | 10711 ft | 277 kts | 249° |
| 2026-05-05 18:21 | 37.23615 | 28.39783 | 10389 ft | 276 kts | 249° |
| 2026-05-05 18:21 | 37.23071 | 28.38289 | 10196 ft | 276 kts | 249° |
| 2026-05-05 18:22 | 37.22226 | 28.35970 | 9832 ft | 275 kts | 248° |
| 2026-05-05 18:22 | 37.21433 | 28.33789 | 9459 ft | 274 kts | 249° |
| 2026-05-05 18:22 | 37.20644 | 28.31619 | 9136 ft | 273 kts | 248° |
| 2026-05-05 18:22 | 37.19955 | 28.29724 | 8798 ft | 273 kts | 248° |
| 2026-05-05 18:23 | 37.19169 | 28.27570 | 8518 ft | 271 kts | 248° |
| 2026-05-05 18:23 | 37.18387 | 28.25428 | 8216 ft | 269 kts | 248° |
| 2026-05-05 18:23 | 37.17601 | 28.23276 | 7892 ft | 268 kts | 248° |
| 2026-05-05 18:23 | 37.16832 | 28.21179 | 7624 ft | 266 kts | 248° |
| 2026-05-05 18:24 | 37.16063 | 28.19078 | 7384 ft | 263 kts | 248° |
| 2026-05-05 18:24 | 37.15231 | 28.16810 | 7292 ft | 256 kts | 249° |
| 2026-05-05 18:24 | 37.14530 | 28.14870 | 7184 ft | 255 kts | 252° |
| 2026-05-05 18:24 | 37.14186 | 28.12770 | 7092 ft | 238 kts | 274° |
| 2026-05-05 18:25 | 37.14447 | 28.10754 | 6872 ft | 228 kts | 291° |
| 2026-05-05 18:25 | 37.14764 | 28.09499 | 6730 ft | 228 kts | 291° |
| 2026-05-05 18:25 | 37.15390 | 28.06943 | 6462 ft | 226 kts | 291° |
| 2026-05-05 18:25 | 37.15844 | 28.05068 | 6247 ft | 225 kts | 291° |
| 2026-05-05 18:26 | 37.16301 | 28.03173 | 6044 ft | 223 kts | 290° |
| 2026-05-05 18:26 | 37.16754 | 28.01270 | 5842 ft | 223 kts | 290° |
| 2026-05-05 18:26 | 37.17192 | 27.99448 | 5658 ft | 221 kts | 290° |
| 2026-05-05 18:26 | 37.17644 | 27.97579 | 5445 ft | 221 kts | 291° |
| 2026-05-05 18:27 | 37.18090 | 27.95738 | 5256 ft | 219 kts | 290° |
| 2026-05-05 18:27 | 37.18533 | 27.93907 | 5069 ft | 220 kts | 291° |
| 2026-05-05 18:27 | 37.18974 | 27.92078 | 4945 ft | 219 kts | 290° |
| 2026-05-05 18:27 | 37.19416 | 27.90249 | 4660 ft | 218 kts | 290° |
| 2026-05-05 18:28 | 37.20208 | 27.86951 | 3993 ft | 186 kts | 290° |
| 2026-05-05 18:28 | 37.20585 | 27.85393 | 3662 ft | 179 kts | 290° |
| 2026-05-05 18:28 | 37.20831 | 27.84372 | 3464 ft | 178 kts | 290° |
| 2026-05-05 18:29 | 37.21192 | 27.82877 | 3171 ft | 175 kts | 290° |
| 2026-05-05 18:29 | 37.21541 | 27.81424 | 2845 ft | 166 kts | 290° |
| 2026-05-05 18:29 | 37.21898 | 27.79938 | 2537 ft | 163 kts | 289° |
| 2026-05-05 18:29 | 37.22252 | 27.78469 | 2225 ft | 162 kts | 289° |
| 2026-05-05 18:30 | 37.22576 | 27.77116 | 1947 ft | 161 kts | 288° |
| 2026-05-05 18:30 | 37.22918 | 27.75691 | 1644 ft | 159 kts | 288° |
| 2026-05-05 18:30 | 37.23224 | 27.74415 | 1369 ft | 151 kts | 288° |
| 2026-05-05 18:30 | 37.23454 | 27.73457 | 1165 ft | 149 kts | 289° |
| 2026-05-05 18:31 | 37.23733 | 27.72288 | 940 ft | 148 kts | 288° |
| 2026-05-05 18:31 | 37.24029 | 27.71058 | 677 ft | 146 kts | 289° |
| 2026-05-05 18:31 | 37.24333 | 27.69832 | 455 ft | 147 kts | 290° |
| 2026-05-05 18:31 | 37.24621 | 27.68577 | 224 ft | 146 kts | 288° |
| 2026-05-05 18:32 | 37.24908 | 27.67371 | 42 ft | 136 kts | 288° |
| 2026-05-05 18:32 | 37.25135 | 27.66430 | 30 ft | 102 kts | 287° |
| 2026-05-05 18:32 | 37.25293 | 27.65776 | 21 ft | 52 kts | 287° |
| 2026-05-05 18:32 | 37.25371 | 27.65445 | 29 ft | 31 kts | 286° |
| 2026-05-05 18:33 | 37.25424 | 27.65213 | 31 ft | 30 kts | 286° |
| 2026-05-05 18:33 | 37.25475 | 27.65012 | 32 ft | 22 kts | 288° |
| 2026-05-05 18:33 | 37.25422 | 27.64898 | 32 ft | 17 kts | 197° |
| 2026-05-05 18:33 | 37.25318 | 27.64945 | 31 ft | 18 kts | 109° |
| 2026-05-05 18:34 | 37.25278 | 27.65103 | 30 ft | 19 kts | 108° |
| 2026-05-05 18:34 | 37.25234 | 27.65286 | 30 ft | 25 kts | 106° |
| 2026-05-05 18:34 | 37.25196 | 27.65447 | 30 ft | 30 kts | 107° |
| 2026-05-05 18:34 | 37.25121 | 27.65747 | 30 ft | 36 kts | 107° |
| 2026-05-05 18:35 | 37.25046 | 27.66074 | 30 ft | 39 kts | 105° |
| 2026-05-05 18:35 | 37.24995 | 27.66291 | 31 ft | 37 kts | 108° |
| 2026-05-05 18:35 | 37.24890 | 27.66722 | 28 ft | 32 kts | 105° |
| 2026-05-05 18:35 | 37.24822 | 27.66907 | 28 ft | 19 kts | 138° |
| 2026-05-05 18:36 | 37.24727 | 27.66990 | 30 ft | 14 kts | 180° |
| 2026-05-05 18:36 | 37.24655 | 27.67045 | 30 ft | 14 kts | 109° |
| 2026-05-05 18:36 | 37.24631 | 27.67136 | 30 ft | 15 kts | 106° |
| 2026-05-05 18:36 | 37.24599 | 27.67279 | 31 ft | 18 kts | 105° |
| 2026-05-05 18:37 | 37.24552 | 27.67463 | 30 ft | 23 kts | 107° |
| 2026-05-05 18:37 | 37.24512 | 27.67640 | 30 ft | 12 kts | 106° |
| 2026-05-05 18:37 | 37.24478 | 27.67671 | 30 ft | 6 kts | 189° |
| 2026-05-05 18:37 | 37.24434 | 27.67655 | 30 ft | 7 kts | 196° |
| 2026-05-05 18:38 | 37.24424 | 27.67651 | 30 ft | 0 kts | 196° |